Аэропорт: Магнитогорск. Магнитогорск

ICAO: USCM

METAR:
2019-07-23 18:00:00
USCM 231800Z 32003MPS 9999 SCT040CB 16/10 Q1012 R36/090065 NOSIG RMK QFE721
METAR:
Информация по данной станции не доступна